createdAt,value
2023-04-25T00:00:22.491Z,3.11
2023-04-25T00:01:24.286Z,3.09
2023-04-25T00:02:26.140Z,2.81
2023-04-25T00:03:28.248Z,2.66
2023-04-25T00:04:30.512Z,3.20
2023-04-25T00:05:32.665Z,6.56
2023-04-25T00:06:34.452Z,3.82
2023-04-25T00:07:36.267Z,2.97
2023-04-25T00:08:38.096Z,2.98
2023-04-25T00:09:39.907Z,2.84
2023-04-25T00:10:41.733Z,2.33
2023-04-25T00:11:43.526Z,2.85
2023-04-25T00:12:45.343Z,2.41
2023-04-25T00:13:47.318Z,2.74
2023-04-25T00:14:49.490Z,2.43
2023-04-25T00:15:51.360Z,2.54
2023-04-25T00:16:53.143Z,2.52
2023-04-25T00:17:54.951Z,2.41
2023-04-25T00:18:56.741Z,2.61
2023-04-25T00:19:58.566Z,2.57
2023-04-25T00:21:00.444Z,2.57
2023-04-25T00:22:02.248Z,2.31
2023-04-25T00:23:04.057Z,2.49
2023-04-25T00:24:05.879Z,2.75
2023-04-25T00:25:07.827Z,2.61
2023-04-25T00:26:10.579Z,2.50
2023-04-25T00:27:12.411Z,2.71
2023-04-25T00:28:14.223Z,2.27
2023-04-25T00:29:16.030Z,2.66
2023-04-25T00:30:17.879Z,2.56
2023-04-25T00:31:19.754Z,2.55
2023-04-25T00:32:21.632Z,2.45
2023-04-25T00:33:23.444Z,2.59
2023-04-25T00:34:25.311Z,2.44
2023-04-25T00:35:27.096Z,2.63
2023-04-25T00:36:29.048Z,2.70
2023-04-25T00:37:30.853Z,2.56
2023-04-25T00:38:32.664Z,2.39
2023-04-25T00:39:34.477Z,2.46
2023-04-25T00:40:36.276Z,2.59
2023-04-25T00:41:38.121Z,2.41
2023-04-25T00:42:39.934Z,2.41
2023-04-25T00:43:41.751Z,2.36
2023-04-25T00:44:43.536Z,2.41
2023-04-25T00:45:45.324Z,2.46
2023-04-25T00:46:47.238Z,2.27
2023-04-25T00:47:49.042Z,2.68
2023-04-25T00:48:50.801Z,2.60
2023-04-25T00:49:52.596Z,2.34
2023-04-25T00:50:54.413Z,2.60
2023-04-25T00:51:56.368Z,2.58
2023-04-25T00:52:58.192Z,2.39
2023-04-25T00:53:59.998Z,2.70
2023-04-25T00:55:01.799Z,2.36
2023-04-25T00:56:03.612Z,2.75
2023-04-25T00:57:05.439Z,2.81
2023-04-25T00:58:07.263Z,2.60
2023-04-25T00:59:09.035Z,2.51
2023-04-25T01:00:11.771Z,2.34
2023-04-25T01:01:13.680Z,2.83
2023-04-25T01:02:15.687Z,2.79
2023-04-25T01:03:17.721Z,2.64
2023-04-25T01:04:19.800Z,2.97
2023-04-25T01:05:21.770Z,2.11
2023-04-25T01:06:23.578Z,2.36
2023-04-25T01:07:25.412Z,2.41
2023-04-25T01:08:27.238Z,2.32
2023-04-25T01:09:29.039Z,2.35
2023-04-25T01:10:30.934Z,2.45
2023-04-25T01:11:32.754Z,2.49
2023-04-25T01:12:34.621Z,2.61
2023-04-25T01:13:36.406Z,2.33
2023-04-25T01:14:38.182Z,2.48
2023-04-25T01:15:39.996Z,2.60
2023-04-25T01:16:41.806Z,2.49
2023-04-25T01:17:43.718Z,2.47
2023-04-25T01:18:45.568Z,2.74
2023-04-25T01:19:47.367Z,2.46
2023-04-25T01:20:49.176Z,2.55
2023-04-25T01:21:50.991Z,2.48
2023-04-25T01:22:52.817Z,2.45
2023-04-25T01:23:54.632Z,2.50
2023-04-25T01:24:56.420Z,2.37
2023-04-25T01:25:58.232Z,2.43
2023-04-25T01:27:00.135Z,2.27
2023-04-25T01:28:01.957Z,2.48
2023-04-25T01:29:03.770Z,2.44
2023-04-25T01:30:05.673Z,2.52
2023-04-25T01:31:07.478Z,2.77
2023-04-25T01:32:09.359Z,2.21
2023-04-25T01:33:11.204Z,2.43
2023-04-25T01:34:12.993Z,2.46
2023-04-25T01:35:14.820Z,2.17
2023-04-25T01:36:17.366Z,2.59
2023-04-25T01:37:19.255Z,2.69
2023-04-25T01:38:21.089Z,2.77
2023-04-25T01:39:22.897Z,2.55
2023-04-25T01:40:24.711Z,2.33
2023-04-25T01:41:26.609Z,2.57
2023-04-25T01:42:28.427Z,2.55
2023-04-25T01:43:30.248Z,2.89
2023-04-25T01:44:32.053Z,2.81
2023-04-25T01:45:33.865Z,2.75
2023-04-25T01:46:35.768Z,2.67
2023-04-25T01:47:37.698Z,2.67
2023-04-25T01:48:39.609Z,2.73
2023-04-25T01:49:41.404Z,2.67
2023-04-25T01:50:43.507Z,2.65
2023-04-25T01:51:45.317Z,2.30
2023-04-25T01:52:47.112Z,2.53
2023-04-25T01:53:49.195Z,2.59
2023-04-25T01:54:51.064Z,2.42
2023-04-25T01:55:52.875Z,2.54
2023-04-25T01:56:54.676Z,2.85
2023-04-25T01:57:56.492Z,2.54
2023-04-25T01:58:58.330Z,2.77
2023-04-25T02:00:00.171Z,2.76
2023-04-25T02:01:01.984Z,2.75
2023-04-25T02:02:03.840Z,2.39
2023-04-25T02:03:05.838Z,2.89
2023-04-25T02:04:07.945Z,3.13
2023-04-25T02:05:09.881Z,2.77
2023-04-25T02:06:11.694Z,2.86
2023-04-25T02:07:13.491Z,3.09
2023-04-25T02:08:15.308Z,2.60
2023-04-25T02:09:17.148Z,3.12
2023-04-25T02:10:19.159Z,2.89
2023-04-25T02:11:21.021Z,2.65
2023-04-25T02:12:22.792Z,2.71
2023-04-25T02:13:24.607Z,2.94
2023-04-25T02:14:26.450Z,2.70
2023-04-25T02:15:28.259Z,2.71
2023-04-25T02:16:30.176Z,2.71
2023-04-25T02:17:31.966Z,2.83
2023-04-25T02:18:33.777Z,2.49
2023-04-25T02:19:35.630Z,2.57
2023-04-25T02:20:37.522Z,2.71
2023-04-25T02:21:39.329Z,4.26
2023-04-25T02:22:41.123Z,4.10
2023-04-25T02:23:42.924Z,4.20
2023-04-25T02:24:44.771Z,3.58
2023-04-25T02:25:46.584Z,3.56
2023-04-25T02:26:48.387Z,2.54
2023-04-25T02:27:50.183Z,2.99
2023-04-25T02:28:51.982Z,2.86
2023-04-25T02:29:53.844Z,3.15
2023-04-25T02:30:56.825Z,3.22
2023-04-25T02:31:58.679Z,13.57
2023-04-25T02:33:00.559Z,42.39
2023-04-25T02:34:02.401Z,15.94
2023-04-25T02:35:04.244Z,8.58
2023-04-25T02:36:06.244Z,5.35
2023-04-25T02:37:08.043Z,4.61
2023-04-25T02:38:09.861Z,18.36
2023-04-25T02:39:11.698Z,11.36
2023-04-25T02:40:14.108Z,5.10
2023-04-25T02:41:15.958Z,4.43
2023-04-25T02:42:17.742Z,3.84
2023-04-25T02:43:19.542Z,3.59
2023-04-25T02:44:21.350Z,3.17
2023-04-25T02:45:23.226Z,3.55
2023-04-25T02:46:35.773Z,3.39
2023-04-25T02:47:28.731Z,3.38
2023-04-25T02:48:30.560Z,3.55
2023-04-25T02:49:32.348Z,3.57
2023-04-25T02:50:34.186Z,3.99
2023-04-25T02:51:35.986Z,3.75
2023-04-25T02:52:37.787Z,3.78
2023-04-25T02:53:39.587Z,3.68
2023-04-25T02:54:41.389Z,3.55
2023-04-25T02:55:43.252Z,4.60
2023-04-25T02:56:45.046Z,3.51
2023-04-25T02:57:46.859Z,3.99
2023-04-25T02:58:48.661Z,3.59
2023-04-25T02:59:50.468Z,3.50
2023-04-25T03:00:52.348Z,4.01
2023-04-25T03:01:54.098Z,3.49
2023-04-25T03:02:56.073Z,3.75
2023-04-25T03:03:57.936Z,3.93
2023-04-25T03:04:59.713Z,3.79
2023-04-25T03:06:01.568Z,4.18
2023-04-25T03:07:03.351Z,4.19
2023-04-25T03:08:05.191Z,4.17
2023-04-25T03:09:06.959Z,3.61
2023-04-25T03:10:08.860Z,3.99
2023-04-25T03:11:10.747Z,4.30
2023-04-25T03:12:12.558Z,4.44
2023-04-25T03:13:14.356Z,4.29
2023-04-25T03:14:16.166Z,4.18
2023-04-25T03:15:17.952Z,4.45
2023-04-25T03:16:20.165Z,4.99
2023-04-25T03:17:21.936Z,6.89
2023-04-25T03:18:23.707Z,7.96
2023-04-25T03:19:25.528Z,8.90
2023-04-25T03:20:27.311Z,9.95
2023-04-25T03:21:29.150Z,11.41
2023-04-25T03:22:30.969Z,11.31
2023-04-25T03:23:32.768Z,9.43
2023-04-25T03:24:34.576Z,9.03
2023-04-25T03:25:36.383Z,8.19
2023-04-25T03:26:38.228Z,9.14
2023-04-25T03:27:40.022Z,8.63
2023-04-25T03:28:41.821Z,8.45
2023-04-25T03:29:43.623Z,8.47
2023-04-25T03:30:45.441Z,7.07
2023-04-25T03:31:47.365Z,6.07
2023-04-25T03:32:49.119Z,6.55
2023-04-25T03:33:51.123Z,5.53
2023-04-25T03:34:53.129Z,4.82
2023-04-25T03:35:54.926Z,4.40
2023-04-25T03:36:56.758Z,4.30
2023-04-25T03:37:58.568Z,4.35
2023-04-25T03:39:00.393Z,4.52
2023-04-25T03:40:02.212Z,4.80
2023-04-25T03:41:04.000Z,4.12
2023-04-25T03:42:05.821Z,4.57
2023-04-25T03:43:07.623Z,4.73
2023-04-25T03:44:09.336Z,7.13
2023-04-25T03:45:11.148Z,9.51
2023-04-25T03:46:12.985Z,8.93
2023-04-25T03:47:14.889Z,7.75
2023-04-25T03:48:16.694Z,7.10
2023-04-25T03:49:19.568Z,7.11
2023-04-25T03:50:21.528Z,6.05
2023-04-25T03:51:23.318Z,5.48
2023-04-25T03:52:25.170Z,5.34
2023-04-25T03:53:26.984Z,5.29
2023-04-25T03:54:28.793Z,4.76
2023-04-25T03:55:30.620Z,5.30
2023-04-25T03:56:32.422Z,4.76
2023-04-25T03:57:34.256Z,4.09
2023-04-25T03:58:36.448Z,3.85
2023-04-25T03:59:38.223Z,4.57
2023-04-25T04:00:40.041Z,4.40
2023-04-25T04:01:41.854Z,4.09
2023-04-25T04:02:45.584Z,4.03
2023-04-25T04:03:47.523Z,7.16
2023-04-25T04:04:49.653Z,5.52
2023-04-25T04:05:52.113Z,3.61
2023-04-25T04:06:54.010Z,3.58
2023-04-25T04:07:55.837Z,3.51
2023-04-25T04:08:57.646Z,3.20
2023-04-25T04:09:59.471Z,3.19
2023-04-25T04:11:01.281Z,3.27
2023-04-25T04:12:03.081Z,3.01
2023-04-25T04:13:04.903Z,2.83
2023-04-25T04:14:06.709Z,3.10
2023-04-25T04:15:08.518Z,3.32
2023-04-25T04:16:10.989Z,2.75
2023-04-25T04:17:12.854Z,3.30
2023-04-25T04:18:14.718Z,2.99
2023-04-25T04:19:16.507Z,2.92
2023-04-25T04:20:19.362Z,2.68
2023-04-25T04:21:21.134Z,2.90
2023-04-25T04:22:22.942Z,2.61
2023-04-25T04:23:24.778Z,2.85
2023-04-25T04:24:26.595Z,2.72
2023-04-25T04:25:28.284Z,2.91
2023-04-25T04:26:30.141Z,2.93
2023-04-25T04:27:31.959Z,2.88
2023-04-25T04:28:33.799Z,3.53
2023-04-25T04:29:35.589Z,3.29
2023-04-25T04:30:39.349Z,3.35
2023-04-25T04:31:41.137Z,3.93
2023-04-25T04:32:43.114Z,3.51
2023-04-25T04:33:45.025Z,3.21
2023-04-25T04:34:46.797Z,2.91
2023-04-25T04:35:48.597Z,3.07
2023-04-25T04:36:50.710Z,2.71
2023-04-25T04:37:52.498Z,3.64
2023-04-25T04:38:54.335Z,3.09
2023-04-25T04:39:56.145Z,3.15
2023-04-25T04:40:59.106Z,3.12
2023-04-25T04:42:00.918Z,3.04
2023-04-25T04:43:02.734Z,3.24
2023-04-25T04:44:04.882Z,3.45
2023-04-25T04:45:07.682Z,4.29
2023-04-25T04:46:09.892Z,3.67
2023-04-25T04:47:11.683Z,3.53
2023-04-25T04:48:13.569Z,4.34
2023-04-25T04:49:15.415Z,4.66
2023-04-25T04:50:17.512Z,3.90
2023-04-25T04:51:19.305Z,3.99
2023-04-25T04:52:21.113Z,3.41
2023-04-25T04:53:22.917Z,2.99
2023-04-25T04:54:24.748Z,3.19
2023-04-25T04:55:26.545Z,2.88
2023-04-25T04:56:28.337Z,3.07
2023-04-25T04:57:30.139Z,3.15
2023-04-25T04:58:32.326Z,2.88
2023-04-25T04:59:34.266Z,3.54
2023-04-25T05:00:36.240Z,2.83
2023-04-25T05:01:37.993Z,3.17
2023-04-25T05:02:40.045Z,3.61
2023-04-25T05:03:42.051Z,2.95
2023-04-25T05:04:43.998Z,2.99
2023-04-25T05:05:45.839Z,2.81
2023-04-25T05:06:49.149Z,3.39
2023-04-25T05:07:51.070Z,3.23
2023-04-25T05:08:52.854Z,3.22
2023-04-25T05:09:54.698Z,3.49
2023-04-25T05:10:56.630Z,3.52
2023-04-25T05:11:58.399Z,3.23
2023-04-25T05:13:00.193Z,3.07
2023-04-25T05:14:02.027Z,3.42
2023-04-25T05:15:03.841Z,3.38
2023-04-25T05:16:05.859Z,3.24
2023-04-25T05:17:07.654Z,3.18
2023-04-25T05:18:09.461Z,3.13
2023-04-25T05:19:11.347Z,3.21
2023-04-25T05:20:13.299Z,3.14
2023-04-25T05:21:15.090Z,3.23
2023-04-25T05:22:16.888Z,3.37
2023-04-25T05:23:18.700Z,3.50
2023-04-25T05:24:20.380Z,3.21
2023-04-25T05:25:22.204Z,3.11
2023-04-25T05:26:23.992Z,3.21
2023-04-25T05:27:25.784Z,3.44
2023-04-25T05:28:27.624Z,3.08
2023-04-25T05:29:29.390Z,3.09
2023-04-25T05:30:31.319Z,3.35
2023-04-25T05:31:33.148Z,3.06
2023-04-25T05:32:34.952Z,3.47
2023-04-25T05:33:36.721Z,4.06
2023-04-25T05:34:38.561Z,4.94
2023-04-25T05:35:40.512Z,8.83
2023-04-25T05:36:42.324Z,10.34
2023-04-25T05:37:44.181Z,4.39
2023-04-25T05:38:45.967Z,3.66
2023-04-25T05:39:47.775Z,3.18
2023-04-25T05:40:49.810Z,3.41
2023-04-25T05:41:51.638Z,3.36
2023-04-25T05:42:53.439Z,3.07
2023-04-25T05:43:57.755Z,3.05
2023-04-25T05:44:58.840Z,2.98
2023-04-25T05:46:00.683Z,3.79
2023-04-25T05:47:02.510Z,3.57
2023-04-25T05:48:04.358Z,3.07
2023-04-25T05:49:06.225Z,3.21
2023-04-25T05:50:08.514Z,3.25
2023-04-25T05:51:10.307Z,3.05
2023-04-25T05:52:12.150Z,3.25
2023-04-25T05:53:13.952Z,3.52
2023-04-25T05:54:15.734Z,3.14
2023-04-25T05:55:17.591Z,4.22
2023-04-25T05:56:19.625Z,3.39
2023-04-25T05:57:21.431Z,3.60
2023-04-25T05:58:23.224Z,3.41
2023-04-25T05:59:25.052Z,3.69
2023-04-25T06:00:26.916Z,3.75
2023-04-25T06:01:28.754Z,3.31
2023-04-25T06:02:30.731Z,3.31
2023-04-25T06:03:32.927Z,3.18
2023-04-25T06:04:35.222Z,3.61
2023-04-25T06:05:37.311Z,3.42
2023-04-25T06:06:39.147Z,3.37
2023-04-25T06:07:40.955Z,3.63
2023-04-25T06:08:42.753Z,3.65
2023-04-25T06:09:44.539Z,3.69
2023-04-25T06:10:46.355Z,3.49
2023-04-25T06:11:48.072Z,3.53
2023-04-25T06:12:49.875Z,3.88
2023-04-25T06:13:51.894Z,4.59
2023-04-25T06:14:54.019Z,7.09
2023-04-25T06:15:55.895Z,4.48
2023-04-25T06:16:57.740Z,3.74
2023-04-25T06:17:59.585Z,3.48
2023-04-25T06:19:01.476Z,3.51
2023-04-25T06:20:04.641Z,3.45
2023-04-25T06:21:06.882Z,3.31
2023-04-25T06:22:08.721Z,3.59
2023-04-25T06:23:10.540Z,3.40
2023-04-25T06:24:12.311Z,3.56
2023-04-25T06:25:14.107Z,3.50
2023-04-25T06:26:16.008Z,3.61
2023-04-25T06:27:17.826Z,3.85
2023-04-25T06:28:19.628Z,3.41
2023-04-25T06:29:21.415Z,3.93
2023-04-25T06:30:23.284Z,3.57
2023-04-25T06:31:25.109Z,3.75
2023-04-25T06:32:29.232Z,5.21
2023-04-25T06:33:30.584Z,4.79
2023-04-25T06:34:32.449Z,3.65
2023-04-25T06:35:34.206Z,3.93
2023-04-25T06:36:36.011Z,4.15
2023-04-25T06:37:37.870Z,3.97
2023-04-25T06:38:39.668Z,3.46
2023-04-25T06:39:41.559Z,4.12
2023-04-25T06:40:44.493Z,6.54
2023-04-25T06:41:46.274Z,10.44
2023-04-25T06:42:48.096Z,10.40
2023-04-25T06:43:49.887Z,10.05
2023-04-25T06:44:51.716Z,11.67
2023-04-25T06:45:53.510Z,11.44
2023-04-25T06:46:55.347Z,12.38
2023-04-25T06:47:57.353Z,11.63
2023-04-25T06:48:59.208Z,11.13
2023-04-25T06:50:01.000Z,11.16
2023-04-25T06:51:02.806Z,11.67
2023-04-25T06:52:04.596Z,11.61
2023-04-25T06:53:06.446Z,11.73
2023-04-25T06:54:08.240Z,11.89
2023-04-25T06:55:10.042Z,11.40
2023-04-25T06:56:11.944Z,11.03
2023-04-25T06:57:13.749Z,11.95
2023-04-25T06:58:15.571Z,10.35
2023-04-25T06:59:17.388Z,10.89
2023-04-25T07:00:19.282Z,11.63
2023-04-25T07:01:21.152Z,11.49
2023-04-25T07:02:23.090Z,10.82
2023-04-25T07:03:25.171Z,11.19
2023-04-25T07:04:27.351Z,10.88
2023-04-25T07:05:29.256Z,11.43
2023-04-25T07:06:31.003Z,11.07
2023-04-25T07:07:32.825Z,11.28
2023-04-25T07:08:34.659Z,11.63
2023-04-25T07:09:36.452Z,11.14
2023-04-25T07:10:38.281Z,9.20
2023-04-25T07:11:40.062Z,10.33
2023-04-25T07:12:41.881Z,11.01
2023-04-25T07:13:43.713Z,11.35
2023-04-25T07:14:45.534Z,10.71
2023-04-25T07:15:47.327Z,10.11
2023-04-25T07:16:49.217Z,10.38
2023-04-25T07:17:51.105Z,10.26
2023-04-25T07:18:53.130Z,9.21
2023-04-25T07:19:55.097Z,9.41
2023-04-25T07:20:56.890Z,8.30
2023-04-25T07:21:58.680Z,10.16
2023-04-25T07:23:00.477Z,9.04
2023-04-25T07:24:02.307Z,9.41
2023-04-25T07:25:04.126Z,8.71
2023-04-25T07:26:06.029Z,9.64
2023-04-25T07:27:07.852Z,9.17
2023-04-25T07:28:09.661Z,8.66
2023-04-25T07:29:11.473Z,9.31
2023-04-25T07:30:13.381Z,8.90
2023-04-25T07:31:15.162Z,10.11
2023-04-25T07:32:17.116Z,8.23
2023-04-25T07:33:19.002Z,8.98
2023-04-25T07:34:20.864Z,8.66
2023-04-25T07:35:22.651Z,8.44
2023-04-25T07:36:24.449Z,8.29
2023-04-25T07:37:26.243Z,8.03
2023-04-25T07:38:28.048Z,8.49
2023-04-25T07:39:29.890Z,8.17
2023-04-25T07:40:31.677Z,8.59
2023-04-25T07:41:33.484Z,8.89
2023-04-25T07:42:35.266Z,8.46
2023-04-25T07:43:37.081Z,7.86
2023-04-25T07:44:38.936Z,8.37
2023-04-25T07:45:40.660Z,8.35
2023-04-25T07:46:42.409Z,7.78
2023-04-25T07:47:44.221Z,9.55
2023-04-25T07:48:46.120Z,8.45
2023-04-25T07:49:47.987Z,8.67
2023-04-25T07:50:49.894Z,7.72
2023-04-25T07:51:51.679Z,7.53
2023-04-25T07:52:53.485Z,8.39
2023-04-25T07:53:55.281Z,8.33
2023-04-25T07:54:57.116Z,8.41
2023-04-25T07:55:58.907Z,8.01
2023-04-25T07:57:00.827Z,8.05
2023-04-25T07:58:02.709Z,8.36
2023-04-25T07:59:04.524Z,8.99
2023-04-25T08:00:06.456Z,7.97
2023-04-25T08:01:08.276Z,8.19
2023-04-25T08:02:10.121Z,8.43
2023-04-25T08:03:12.193Z,7.98
2023-04-25T08:04:14.188Z,7.89
2023-04-25T08:05:17.726Z,8.17
2023-04-25T08:06:20.280Z,7.41
2023-04-25T08:07:22.277Z,8.12
2023-04-25T08:08:24.064Z,7.81
2023-04-25T08:09:25.892Z,7.63
2023-04-25T08:10:27.713Z,7.41
2023-04-25T08:11:29.551Z,7.93
2023-04-25T08:12:31.348Z,7.93
2023-04-25T08:13:33.141Z,7.91
2023-04-25T08:14:34.941Z,7.79
2023-04-25T08:15:36.936Z,7.63
2023-04-25T08:16:38.946Z,8.11
2023-04-25T08:17:40.803Z,7.91
2023-04-25T08:18:42.645Z,7.67
2023-04-25T08:19:44.462Z,7.88
2023-04-25T08:20:46.405Z,7.08
2023-04-25T08:21:48.201Z,7.92
2023-04-25T08:22:50.001Z,7.89
2023-04-25T08:23:51.832Z,7.48
2023-04-25T08:24:53.656Z,6.64
2023-04-25T08:25:55.464Z,6.85
2023-04-25T08:26:57.257Z,7.30
2023-04-25T08:27:59.103Z,6.58
2023-04-25T08:29:00.930Z,6.15
2023-04-25T08:30:02.716Z,6.64
2023-04-25T08:31:04.567Z,7.15
2023-04-25T08:32:06.352Z,6.19
2023-04-25T08:33:08.198Z,6.75
2023-04-25T08:34:09.948Z,6.96
2023-04-25T08:35:11.768Z,7.05
2023-04-25T08:36:15.779Z,6.55
2023-04-25T08:37:17.339Z,6.52
2023-04-25T08:38:19.169Z,7.03
2023-04-25T08:39:20.958Z,6.64
2023-04-25T08:40:22.765Z,7.18
2023-04-25T08:41:24.601Z,6.59
2023-04-25T08:42:26.398Z,5.81
2023-04-25T08:43:28.200Z,6.36
2023-04-25T08:44:30.012Z,7.31
2023-04-25T08:45:31.806Z,7.12
2023-04-25T08:46:33.757Z,6.80
2023-04-25T08:47:35.653Z,7.53
2023-04-25T08:48:37.462Z,8.16
2023-04-25T08:49:39.248Z,8.23
2023-04-25T08:50:41.050Z,9.07
2023-04-25T08:51:42.907Z,9.51
2023-04-25T08:52:44.738Z,7.43
2023-04-25T08:53:46.513Z,8.27
2023-04-25T08:54:48.328Z,7.79
2023-04-25T08:55:50.114Z,9.21
2023-04-25T08:56:51.988Z,9.97
2023-04-25T08:57:53.786Z,10.80
2023-04-25T08:58:55.712Z,13.70
2023-04-25T08:59:57.523Z,11.33
2023-04-25T09:00:59.455Z,11.46
2023-04-25T09:02:01.173Z,10.79
2023-04-25T09:03:03.086Z,9.71
2023-04-25T09:04:05.404Z,9.94
2023-04-25T09:05:07.413Z,9.84
2023-04-25T09:06:09.643Z,9.02
2023-04-25T09:07:11.505Z,8.83
2023-04-25T09:08:13.298Z,10.41
2023-04-25T09:09:15.095Z,9.41
2023-04-25T09:10:18.332Z,11.03
2023-04-25T09:11:21.530Z,10.21
2023-04-25T09:12:23.758Z,9.73
2023-04-25T09:13:25.568Z,8.55
2023-04-25T09:14:27.366Z,10.04
2023-04-25T09:15:29.170Z,9.63
2023-04-25T09:16:31.400Z,11.48
2023-04-25T09:17:33.755Z,10.58
2023-04-25T09:18:35.526Z,10.61
2023-04-25T09:19:40.843Z,9.40
2023-04-25T09:21:45.145Z,9.20
2023-04-25T09:22:48.037Z,8.84
2023-04-25T09:23:50.016Z,9.03
2023-04-25T09:24:52.045Z,8.13
2023-04-25T09:25:53.869Z,8.48
2023-04-25T09:26:55.670Z,8.82
2023-04-25T09:27:57.560Z,7.57
2023-04-25T09:28:59.332Z,8.22
2023-04-25T09:30:01.122Z,8.67
2023-04-25T09:31:02.949Z,8.87
2023-04-25T09:32:04.790Z,8.47
2023-04-25T09:33:06.748Z,8.93
2023-04-25T09:34:08.604Z,8.43
2023-04-25T09:35:10.376Z,8.08
2023-04-25T09:36:12.269Z,8.57
2023-04-25T09:37:14.114Z,8.37
2023-04-25T09:38:15.994Z,8.41
2023-04-25T09:39:17.761Z,7.96
2023-04-25T09:40:19.919Z,8.17
2023-04-25T09:41:21.674Z,7.59
2023-04-25T09:42:23.515Z,7.91
2023-04-25T09:43:25.394Z,8.08
2023-04-25T09:44:27.132Z,8.12
2023-04-25T09:45:28.990Z,8.29
2023-04-25T09:46:30.850Z,8.57
2023-04-25T09:47:32.760Z,8.44
2023-04-25T09:48:34.539Z,8.26
2023-04-25T09:49:36.334Z,7.93
2023-04-25T09:50:38.159Z,8.87
2023-04-25T09:51:39.986Z,8.98
2023-04-25T09:52:41.780Z,7.94
2023-04-25T09:53:43.650Z,8.91
2023-04-25T09:54:45.424Z,8.78
2023-04-25T09:55:47.327Z,8.55
2023-04-25T09:56:49.240Z,8.82
2023-04-25T09:57:51.062Z,8.89
2023-04-25T09:58:52.888Z,8.00
2023-04-25T09:59:54.699Z,7.67
2023-04-25T10:00:56.553Z,9.01
2023-04-25T10:01:58.413Z,7.83
2023-04-25T10:03:00.334Z,8.48
2023-04-25T10:04:03.077Z,8.44
2023-04-25T10:05:05.377Z,8.50
2023-04-25T10:06:10.293Z,7.78
2023-04-25T10:07:12.145Z,8.31
2023-04-25T10:08:13.960Z,8.29
2023-04-25T10:09:15.791Z,7.49
2023-04-25T10:10:18.025Z,8.11
2023-04-25T10:11:19.810Z,8.11
2023-04-25T10:12:21.610Z,8.46
2023-04-25T10:13:23.420Z,7.14
2023-04-25T10:14:25.265Z,8.38
2023-04-25T10:15:27.086Z,7.95
2023-04-25T10:16:28.960Z,7.59
2023-04-25T10:17:30.805Z,8.19
2023-04-25T10:18:32.597Z,9.04
2023-04-25T10:19:34.421Z,7.85
2023-04-25T10:20:36.220Z,7.60
2023-04-25T10:21:38.030Z,7.61
2023-04-25T10:22:39.844Z,7.30
2023-04-25T10:23:41.663Z,7.61
2023-04-25T10:24:43.489Z,8.13
2023-04-25T10:25:45.316Z,7.40
2023-04-25T10:26:47.627Z,7.13
2023-04-25T10:27:49.417Z,7.42
2023-04-25T10:28:51.224Z,6.89
2023-04-25T10:29:53.003Z,6.87
2023-04-25T10:30:54.872Z,7.03
2023-04-25T10:31:57.077Z,6.77
2023-04-25T10:32:58.974Z,6.80
2023-04-25T10:34:00.824Z,6.89
2023-04-25T10:35:02.638Z,6.57
2023-04-25T10:36:04.523Z,6.84
2023-04-25T10:37:06.335Z,6.72
2023-04-25T10:38:08.146Z,6.83
2023-04-25T10:39:09.948Z,6.77
2023-04-25T10:40:12.699Z,6.41
2023-04-25T10:41:14.499Z,6.36
2023-04-25T10:42:16.301Z,6.91
2023-04-25T10:43:18.109Z,6.34
2023-04-25T10:44:19.910Z,6.96
2023-04-25T10:45:21.743Z,6.39
2023-04-25T10:46:23.596Z,6.02
2023-04-25T10:47:25.498Z,6.13
2023-04-25T10:48:27.375Z,6.34
2023-04-25T10:49:29.201Z,6.16
2023-04-25T10:50:31.050Z,6.34
2023-04-25T10:51:43.317Z,6.60
2023-04-25T10:52:36.461Z,6.64
2023-04-25T10:53:38.289Z,6.31
2023-04-25T10:54:40.166Z,6.41
2023-04-25T10:55:42.003Z,6.23
2023-04-25T10:56:43.820Z,6.40
2023-04-25T10:57:45.637Z,6.02
2023-04-25T10:58:48.630Z,7.33
2023-04-25T10:59:51.049Z,6.34
2023-04-25T11:00:57.537Z,6.02
2023-04-25T11:01:56.777Z,6.11
2023-04-25T11:02:58.925Z,6.38
2023-04-25T11:04:00.961Z,6.11
2023-04-25T11:05:03.025Z,6.17
2023-04-25T11:06:04.963Z,5.65
2023-04-25T11:07:08.729Z,5.82
2023-04-25T11:08:10.503Z,6.09
2023-04-25T11:09:12.301Z,5.98
2023-04-25T11:10:14.516Z,5.82
2023-04-25T11:11:16.347Z,5.55
2023-04-25T11:12:18.159Z,5.89
2023-04-25T11:13:19.939Z,6.03
2023-04-25T11:14:21.778Z,6.03
2023-04-25T11:15:23.549Z,5.40
2023-04-25T11:16:28.462Z,6.15
2023-04-25T11:17:29.111Z,6.88
2023-04-25T11:18:30.927Z,5.99
2023-04-25T11:19:32.714Z,5.85
2023-04-25T11:20:34.500Z,5.89
2023-04-25T11:21:36.349Z,5.89
2023-04-25T11:22:38.161Z,6.53
2023-04-25T11:23:39.973Z,6.69
2023-04-25T11:24:41.800Z,19.67
2023-04-25T11:25:43.623Z,24.08
2023-04-25T11:26:45.578Z,20.99
2023-04-25T11:27:47.372Z,18.51
2023-04-25T11:28:49.175Z,17.43
2023-04-25T11:29:50.998Z,16.33
2023-04-25T11:30:52.784Z,16.27
2023-04-25T11:31:54.694Z,15.24
2023-04-25T11:32:56.512Z,15.35
2023-04-25T11:33:58.287Z,15.49
2023-04-25T11:35:00.128Z,14.80
2023-04-25T11:36:01.922Z,14.28
2023-04-25T11:37:03.807Z,14.46
2023-04-25T11:38:05.556Z,14.97
2023-04-25T11:39:07.361Z,14.27
2023-04-25T11:40:09.468Z,14.12
2023-04-25T11:41:11.258Z,14.81
2023-04-25T11:42:13.819Z,14.15
2023-04-25T11:43:16.365Z,14.54
2023-04-25T11:44:19.611Z,13.43
2023-04-25T11:45:21.387Z,13.21
2023-04-25T11:46:23.395Z,12.60
2023-04-25T11:47:25.288Z,13.24
2023-04-25T11:48:27.090Z,13.05
2023-04-25T11:49:28.936Z,13.14
2023-04-25T11:50:30.773Z,13.42
2023-04-25T11:51:32.581Z,13.13
2023-04-25T11:52:34.429Z,12.29
2023-04-25T11:53:36.211Z,12.36
2023-04-25T11:54:38.018Z,12.76
2023-04-25T11:55:39.806Z,13.01
2023-04-25T11:56:41.714Z,12.24
2023-04-25T11:57:43.613Z,12.74
2023-04-25T11:58:45.473Z,13.47
2023-04-25T11:59:47.278Z,13.05
2023-04-25T12:00:50.394Z,13.21
2023-04-25T12:01:52.592Z,12.18
2023-04-25T12:02:54.768Z,11.97
2023-04-25T12:03:56.983Z,12.23
2023-04-25T12:05:01.140Z,12.33
2023-04-25T12:06:02.669Z,11.92
2023-04-25T12:07:04.649Z,11.62
2023-04-25T12:08:06.444Z,11.83
2023-04-25T12:09:08.265Z,11.37
2023-04-25T12:10:10.257Z,11.42
2023-04-25T12:11:12.123Z,11.12
2023-04-25T12:12:13.918Z,12.01
2023-04-25T12:13:15.836Z,10.81
2023-04-25T12:14:17.608Z,11.64
2023-04-25T12:15:19.453Z,11.36
2023-04-25T12:16:21.342Z,10.81
2023-04-25T12:17:23.153Z,10.52
2023-04-25T12:18:24.991Z,11.30
2023-04-25T12:19:26.826Z,11.40
2023-04-25T12:20:28.589Z,10.97
2023-04-25T12:21:30.389Z,10.70
2023-04-25T12:22:32.086Z,10.89
2023-04-25T12:23:33.936Z,10.38
2023-04-25T12:24:38.756Z,10.59
2023-04-25T12:25:39.732Z,10.56
2023-04-25T12:26:41.858Z,10.80
2023-04-25T12:27:43.658Z,10.19
2023-04-25T12:28:45.494Z,10.03
2023-04-25T12:30:50.097Z,5.29
2023-04-25T12:31:51.963Z,4.40
2023-04-25T12:32:53.908Z,4.67
2023-04-25T12:33:55.649Z,4.74
2023-04-25T12:34:57.457Z,4.90
2023-04-25T12:35:59.263Z,6.15
2023-04-25T12:37:01.369Z,5.47
2023-04-25T12:38:03.168Z,9.59
2023-04-25T12:39:05.023Z,5.24
2023-04-25T12:40:06.918Z,5.17
2023-04-25T12:41:08.703Z,4.35
2023-04-25T12:42:10.526Z,4.47
2023-04-25T12:43:12.318Z,4.29
2023-04-25T12:44:14.202Z,4.28
2023-04-25T12:45:15.986Z,4.39
2023-04-25T12:46:17.807Z,4.28
2023-04-25T12:47:19.595Z,4.65
2023-04-25T12:48:21.435Z,4.83
2023-04-25T12:49:23.429Z,4.76
2023-04-25T12:50:25.489Z,4.21
2023-04-25T12:51:27.320Z,5.23
2023-04-25T12:52:29.136Z,4.41
2023-04-25T12:53:30.939Z,4.43
2023-04-25T12:54:32.845Z,5.11
2023-04-25T12:55:34.781Z,4.26
2023-04-25T12:56:36.594Z,4.83
2023-04-25T12:57:38.378Z,4.39
2023-04-25T12:58:40.180Z,4.07
2023-04-25T12:59:42.021Z,4.46
2023-04-25T13:00:44.034Z,4.07
2023-04-25T13:01:45.974Z,4.27
2023-04-25T13:02:47.899Z,4.65
2023-04-25T13:03:49.979Z,5.07
2023-04-25T13:04:51.990Z,4.67
2023-04-25T13:05:53.787Z,4.75
2023-04-25T13:06:55.603Z,4.38
2023-04-25T13:07:57.404Z,4.29
2023-04-25T13:08:59.229Z,4.21
2023-04-25T13:10:01.098Z,4.87
2023-04-25T13:11:02.873Z,4.33
2023-04-25T13:12:04.678Z,4.07
2023-04-25T13:13:06.487Z,3.92
2023-04-25T13:14:08.262Z,4.43
2023-04-25T13:15:10.101Z,4.01
2023-04-25T13:16:15.347Z,4.69
2023-04-25T13:17:17.226Z,4.01
2023-04-25T13:18:19.089Z,4.73
2023-04-25T13:19:20.942Z,5.31
2023-04-25T13:20:22.760Z,3.86
2023-04-25T13:21:24.570Z,3.88
2023-04-25T13:22:26.386Z,3.89
2023-04-25T13:23:28.166Z,4.39
2023-04-25T13:24:29.973Z,4.13
2023-04-25T13:25:31.816Z,4.24
2023-04-25T13:26:33.825Z,4.09
2023-04-25T13:27:35.650Z,3.83
2023-04-25T13:28:37.454Z,4.02
2023-04-25T13:29:39.247Z,3.86
2023-04-25T13:30:41.085Z,3.99
2023-04-25T13:31:42.944Z,4.42
2023-04-25T13:32:44.720Z,4.89
2023-04-25T13:33:46.495Z,5.49
2023-04-25T13:34:48.276Z,4.26
2023-04-25T13:35:50.110Z,4.13
2023-04-25T13:36:51.917Z,4.61
2023-04-25T13:37:53.725Z,3.89
2023-04-25T13:38:55.543Z,4.04
2023-04-25T13:39:57.322Z,4.78
2023-04-25T13:40:59.166Z,4.25
2023-04-25T13:42:00.972Z,4.11